Time;durP1;ratioP1;P1;durP2;ratioP2;P2;SDS_P1;SDS_P2;PMS_P1;PMS_P2;Temp;Humidity;BMP_temperature;BMP_pressure;BME280_temperature;BME280_humidity;BME280_pressure;Samples;Min_cycle;Max_cycle;Signal;HPM_P1;HPM_P2
2022/04/01 00:00:28;;;;;;;0.52;0.45;;;22.60;66.60;;;;;;5077772;23;20020;-51
2022/04/01 00:02:51;;;;;;;1.67;0.55;;;22.60;66.70;;;;;;5073562;23;20017;-51
2022/04/01 00:05:13;;;;;;;2.20;0.70;;;22.60;66.80;;;;;;5071284;23;20635;-49
2022/04/01 00:07:36;;;;;;;1.35;0.70;;;22.50;66.70;;;;;;5075670;23;20574;-54
2022/04/01 00:09:59;;;;;;;8.65;0.80;;;22.50;67.00;;;;;;5074160;23;20146;-56
2022/04/01 00:12:21;;;;;;;1.95;0.70;;;22.50;67.00;;;;;;5071876;23;20020;-56
2022/04/01 00:14:44;;;;;;;1.83;0.70;;;22.50;67.00;;;;;;5077479;23;21018;-51
2022/04/01 00:17:06;;;;;;;1.42;0.60;;;22.40;66.90;;;;;;5077232;23;20371;-56
2022/04/01 00:19:30;;;;;;;1.33;0.80;;;22.40;67.00;;;;;;5072141;23;20990;-54
2022/04/01 00:21:53;;;;;;;1.73;0.75;;;22.40;67.10;;;;;;5074061;23;20020;-51
2022/04/01 00:24:15;;;;;;;1.55;0.88;;;22.40;67.20;;;;;;5074854;23;20020;-55
2022/04/01 00:26:38;;;;;;;1.10;0.60;;;22.40;67.20;;;;;;5074127;23;20013;-52
2022/04/01 00:29:01;;;;;;;1.27;0.70;;;22.30;67.30;;;;;;5078488;23;20662;-51
2022/04/01 00:31:23;;;;;;;1.63;0.70;;;22.30;67.30;;;;;;5078762;23;20016;-57
2022/04/01 00:33:46;;;;;;;2.30;1.00;;;22.30;67.30;;;;;;5077447;23;20124;-56
2022/04/01 00:36:08;;;;;;;1.08;0.77;;;22.30;67.40;;;;;;5082948;23;20024;-55
2022/04/01 00:38:31;;;;;;;1.38;0.60;;;22.30;67.50;;;;;;5087229;23;20115;-53
2022/04/01 00:40:54;;;;;;;2.30;0.70;;;22.30;67.50;;;;;;5083593;23;20066;-50
2022/04/01 00:43:16;;;;;;;1.55;0.60;;;22.30;67.60;;;;;;5075315;23;20017;-52
2022/04/01 00:45:39;;;;;;;3.30;0.80;;;22.20;67.70;;;;;;5087914;23;20019;-53
2022/04/01 00:48:01;;;;;;;2.08;0.95;;;22.20;67.70;;;;;;5076953;23;20028;-48
2022/04/01 00:50:24;;;;;;;2.58;0.90;;;22.20;67.90;;;;;;5071743;23;20127;-52
2022/04/01 00:52:47;;;;;;;2.25;0.68;;;22.20;68.70;;;;;;5083818;23;20745;-52
2022/04/01 00:55:10;;;;;;;2.47;0.70;;;22.20;68.30;;;;;;5078818;23;20014;-47
2022/04/01 00:57:32;;;;;;;1.35;0.38;;;22.20;68.40;;;;;;5083394;23;20055;-53
2022/04/01 00:59:55;;;;;;;1.50;0.77;;;22.20;68.50;;;;;;5084837;23;20024;-48
2022/04/01 01:02:18;;;;;;;1.55;0.40;;;22.20;68.60;;;;;;5067960;23;20020;-52
2022/04/01 01:04:41;;;;;;;4.90;0.65;;;22.20;68.70;;;;;;5079394;23;20092;-53
2022/04/01 01:07:04;;;;;;;1.63;0.50;;;22.20;68.80;;;;;;5083987;23;20024;-51
2022/04/01 01:09:28;;;;;;;1.45;0.63;;;22.20;68.90;;;;;;5081278;23;20450;-54
2022/04/01 01:11:52;;;;;;;6.03;0.57;;;22.20;68.90;;;;;;5079556;23;20008;-53
2022/04/01 01:14:15;;;;;;;2.42;0.98;;;22.20;69.00;;;;;;5081998;23;20016;-47
2022/04/01 01:16:40;;;;;;;2.25;0.43;;;22.20;69.00;;;;;;5080042;23;20013;-52
2022/04/01 01:19:05;;;;;;;2.13;0.85;;;22.20;69.00;;;;;;5066447;23;20414;-52
2022/04/01 01:21:28;;;;;;;2.35;0.77;;;22.20;69.00;;;;;;5039871;23;20013;-53
2022/04/01 01:23:51;;;;;;;1.55;0.70;;;22.20;69.00;;;;;;5068679;23;20036;-52
2022/04/01 01:26:13;;;;;;;1.63;0.60;;;22.20;69.00;;;;;;5075596;23;20051;-48
2022/04/01 01:28:36;;;;;;;1.38;0.40;;;22.20;69.10;;;;;;5068342;23;20040;-50
2022/04/01 01:30:59;;;;;;;1.10;0.50;;;22.20;69.00;;;;;;5068043;23;20114;-51
2022/04/01 01:33:25;;;;;;;0.75;0.47;;;22.20;69.10;;;;;;5075816;23;21021;-47
2022/04/01 01:35:48;;;;;;;0.50;0.50;;;22.20;69.00;;;;;;5070302;23;20400;-47
2022/04/01 01:38:11;;;;;;;1.33;0.53;;;22.20;69.00;;;;;;5068194;23;20096;-52
2022/04/01 01:40:33;;;;;;;1.15;0.40;;;22.20;69.10;;;;;;5076306;23;20308;-46
2022/04/01 01:42:55;;;;;;;1.10;0.45;;;22.20;69.00;;;;;;5067544;23;20522;-51
2022/04/01 01:45:19;;;;;;;2.08;0.80;;;22.20;68.90;;;;;;5069215;23;20021;-49
2022/04/01 01:47:42;;;;;;;1.35;0.60;;;22.20;68.60;;;;;;5073457;23;20017;-50
2022/04/01 01:55:30;;;;;;;1.55;0.80;;;22.10;68.30;;;;;;5074824;23;20530;-47
2022/04/01 01:57:52;;;;;;;1.95;0.60;;;22.10;68.40;;;;;;5068627;23;20501;-55
2022/04/01 02:00:20;;;;;;;0.82;0.40;;;22.00;68.40;;;;;;5075162;23;20467;-49
2022/04/01 02:02:42;;;;;;;0.47;0.43;;;22.00;68.40;;;;;;5069672;23;20043;-47
2022/04/01 02:05:06;;;;;;;0.88;0.50;;;22.00;68.40;;;;;;5071420;23;20021;-52
2022/04/01 02:07:28;;;;;;;0.65;0.52;;;22.00;68.30;;;;;;5077588;23;20100;-56
2022/04/01 02:09:51;;;;;;;2.60;0.60;;;22.00;68.20;;;;;;5072873;23;20495;-49
2022/04/01 02:12:16;;;;;;;2.25;0.90;;;22.00;68.30;;;;;;5073400;23;20445;-49
2022/04/01 02:14:38;;;;;;;1.60;0.60;;;21.90;68.10;;;;;;5081392;23;20017;-49
2022/04/01 02:17:01;;;;;;;0.73;0.50;;;21.90;68.00;;;;;;5046751;23;20005;-49
2022/04/01 02:19:25;;;;;;;2.30;0.77;;;21.90;68.10;;;;;;5073403;23;20389;-48
2022/04/01 02:21:53;;;;;;;1.38;0.68;;;21.90;68.00;;;;;;5076525;23;20017;-44
2022/04/01 02:24:17;;;;;;;1.65;0.63;;;21.90;68.00;;;;;;5079804;23;20021;-45
2022/04/01 02:26:39;;;;;;;;;;;21.90;68.00;;;;;;5061534;23;20014;-50
2022/04/01 02:29:03;;;;;;;1.85;0.98;;;21.90;68.10;;;;;;5082891;23;19912;-50
2022/04/01 02:31:26;;;;;;;2.58;0.73;;;21.90;68.00;;;;;;5083531;23;20017;-51
2022/04/01 02:33:48;;;;;;;1.55;0.70;;;21.90;67.90;;;;;;5089788;23;20013;-48
2022/04/01 02:36:11;;;;;;;2.00;0.70;;;21.90;68.00;;;;;;5093115;23;20017;-54
2022/04/01 02:38:34;;;;;;;1.85;0.80;;;21.90;68.00;;;;;;5091308;23;20017;-51
2022/04/01 02:40:57;;;;;;;2.60;0.85;;;21.90;68.00;;;;;;5096478;23;20017;-45
2022/04/01 02:43:30;;;;;;;3.03;0.63;;;21.90;67.90;;;;;;5096239;23;20870;-48
2022/04/01 02:45:52;;;;;;;2.33;0.70;;;21.90;67.90;;;;;;5064636;23;20033;-45
2022/04/01 02:48:19;;;;;;;0.82;0.77;;;21.90;67.90;;;;;;5063825;23;20010;-43
2022/04/01 02:51:03;;;;;;;0.50;0.50;;;21.90;67.80;;;;;;5067909;23;20416;-43
2022/04/01 02:53:26;;;;;;;0.73;0.47;;;21.90;67.90;;;;;;5069987;23;20440;-44
2022/04/01 02:55:49;;;;;;;6.83;0.77;;;21.90;67.80;;;;;;5065361;23;20533;-49
2022/04/01 02:58:12;;;;;;;4.10;0.82;;;21.90;67.80;;;;;;5041654;23;20436;-49
2022/04/01 03:00:37;;;;;;;1.05;0.50;;;21.90;67.70;;;;;;5044970;23;20119;-48
2022/04/01 03:03:00;;;;;;;1.38;0.60;;;21.90;67.70;;;;;;5022514;23;20014;-50
2022/04/01 03:05:23;;;;;;;0.80;0.47;;;21.90;67.70;;;;;;5044142;23;20018;-54
2022/04/01 03:07:45;;;;;;;0.68;0.50;;;21.90;67.70;;;;;;5046574;23;20045;-49
2022/04/01 03:10:09;;;;;;;1.15;0.60;;;21.90;67.70;;;;;;5052321;23;20512;-48
2022/04/01 03:12:32;;;;;;;1.58;0.73;;;21.90;67.60;;;;;;5047071;23;20013;-52
2022/04/01 03:14:54;;;;;;;2.03;0.75;;;21.90;67.60;;;;;;5047741;23;20131;-50
2022/04/01 03:17:17;;;;;;;2.03;0.90;;;22.00;67.60;;;;;;5051822;23;20715;-52
2022/04/01 03:19:39;;;;;;;5.03;0.77;;;22.00;67.60;;;;;;5043703;23;20041;-50
2022/04/01 03:22:02;;;;;;;1.05;0.60;;;22.00;67.50;;;;;;5043999;23;20906;-50
2022/04/01 03:24:24;;;;;;;3.42;0.85;;;22.00;67.50;;;;;;5047351;23;20044;-52
2022/04/01 03:26:47;;;;;;;1.52;0.73;;;22.00;67.40;;;;;;5012380;23;20018;-54
2022/04/01 03:29:13;;;;;;;1.33;0.60;;;22.00;67.50;;;;;;5037202;23;20145;-50
2022/04/01 03:31:36;;;;;;;2.88;0.98;;;22.00;67.50;;;;;;5049261;23;20036;-52
2022/04/01 03:33:59;;;;;;;3.93;0.97;;;22.00;67.40;;;;;;5045128;23;20018;-48
2022/04/01 03:36:21;;;;;;;2.15;0.50;;;22.00;67.40;;;;;;5051091;23;20314;-48
2022/04/01 03:38:44;;;;;;;1.88;0.82;;;22.00;67.50;;;;;;5045225;23;20014;-51
2022/04/01 03:41:08;;;;;;;3.40;0.77;;;22.00;67.60;;;;;;5040739;23;20104;-47
2022/04/01 03:43:30;;;;;;;1.30;0.47;;;22.00;67.70;;;;;;5042876;23;20328;-52
2022/04/01 03:45:54;;;;;;;1.23;0.40;;;22.00;67.70;;;;;;5045316;23;20060;-54
2022/04/01 03:48:35;;;;;;;7.70;1.67;;;22.00;67.80;;;;;;5043856;23;20100;-53
2022/04/01 03:50:58;;;;;;;3.78;0.73;;;22.00;67.80;;;;;;5041829;23;20021;-51
2022/04/01 03:53:25;;;;;;;3.05;0.70;;;22.00;68.10;;;;;;5037539;23;20009;-46
2022/04/01 03:55:50;;;;;;;2.38;0.80;;;22.00;68.00;;;;;;5041571;23;20055;-49
2022/04/01 03:58:13;;;;;;;4.43;1.27;;;22.00;68.00;;;;;;5041145;23;20456;-54
2022/04/01 04:00:38;;;;;;;4.90;1.20;;;22.00;68.10;;;;;;5050901;23;20120;-53
2022/04/01 04:03:08;;;;;;;2.78;0.98;;;22.00;68.10;;;;;;5011151;23;20069;-48
2022/04/01 04:05:32;;;;;;;4.43;1.20;;;22.00;68.00;;;;;;5017797;23;20045;-53
2022/04/01 04:07:55;;;;;;;4.50;0.90;;;22.00;68.00;;;;;;5041069;23;20013;-49
2022/04/01 04:10:18;;;;;;;1.95;1.10;;;22.00;67.90;;;;;;5042797;23;20398;-52
2022/04/01 04:12:44;;;;;;;5.03;1.27;;;22.00;67.90;;;;;;5050357;23;20543;-48
2022/04/01 04:15:07;;;;;;;4.40;0.90;;;22.00;67.90;;;;;;5042489;23;20021;-47
2022/04/01 04:17:39;;;;;;;3.38;0.80;;;22.00;67.90;;;;;;5042797;23;20099;-48
2022/04/01 04:20:13;;;;;;;3.10;1.00;;;22.10;67.90;;;;;;5040174;23;20017;-47
2022/04/01 04:22:57;;;;;;;2.00;0.82;;;22.10;67.90;;;;;;5046044;23;20838;-49
2022/04/01 04:25:29;;;;;;;4.05;1.17;;;22.00;67.80;;;;;;5047047;23;20021;-51
2022/04/01 04:28:01;;;;;;;8.23;1.30;;;22.10;68.00;;;;;;5037587;23;20036;-42
2022/04/01 04:30:35;;;;;;;3.90;0.90;;;22.10;68.20;;;;;;5037583;23;20093;-47
2022/04/01 04:33:04;;;;;;;2.22;0.82;;;22.10;68.00;;;;;;5043074;23;20104;-44
2022/04/01 04:35:29;;;;;;;0.55;0.50;;;22.00;68.00;;;;;;5036863;23;20024;-44
2022/04/01 04:37:56;;;;;;;2.00;0.77;;;22.00;67.90;;;;;;5040614;23;20853;-42
2022/04/01 04:40:19;;;;;;;1.95;0.73;;;22.00;67.90;;;;;;5040367;23;20170;-42
2022/04/01 04:42:46;;;;;;;2.60;0.60;;;22.10;68.10;;;;;;5043913;23;20021;-43
2022/04/01 04:45:09;;;;;;;3.92;0.68;;;22.10;68.10;;;;;;5049411;23;20132;-48
2022/04/01 04:47:33;;;;;;;2.90;0.80;;;22.10;68.10;;;;;;5015202;23;20010;-51
2022/04/01 04:49:57;;;;;;;;;;;22.10;68.30;;;;;;5039922;23;20334;-45
2022/04/01 04:52:22;;;;;;;1.70;0.60;;;22.10;68.30;;;;;;5047476;23;19908;-45
2022/04/01 04:54:45;;;;;;;1.20;0.70;;;22.10;68.30;;;;;;5043521;23;20013;-45
2022/04/01 04:57:08;;;;;;;0.75;0.40;;;22.10;68.40;;;;;;5047964;23;20045;-46
2022/04/01 04:59:31;;;;;;;5.00;1.13;;;22.20;68.40;;;;;;5017772;23;20552;-51
2022/04/01 05:02:06;;;;;;;0.73;0.50;;;22.20;68.30;;;;;;5029161;23;20017;-50
2022/04/01 05:04:32;;;;;;;0.60;0.47;;;22.20;68.30;;;;;;5040623;23;20013;-49
2022/04/01 05:07:34;;;;;;;0.73;0.50;;;22.20;68.30;;;;;;5043275;23;20041;-49
2022/04/01 05:10:07;;;;;;;1.05;0.50;;;22.20;68.20;;;;;;5026765;23;20148;-51
2022/04/01 05:12:48;;;;;;;1.50;0.70;;;22.20;68.30;;;;;;5040916;23;20864;-47
2022/04/01 05:15:11;;;;;;;1.55;0.52;;;22.20;68.20;;;;;;5033006;23;21096;-50
2022/04/01 05:17:38;;;;;;;2.72;0.47;;;22.20;68.20;;;;;;5044362;23;20039;-50
2022/04/01 05:20:02;;;;;;;1.90;0.82;;;22.20;68.20;;;;;;5046896;23;20018;-50
2022/04/01 05:22:36;;;;;;;1.33;0.50;;;22.20;68.10;;;;;;5050860;23;20032;-48
2022/04/01 05:25:00;;;;;;;;;;;22.20;68.10;;;;;;5045807;23;20064;-50
2022/04/01 05:27:30;;;;;;;2.40;0.53;;;22.20;68.10;;;;;;5052575;23;19908;-46
2022/04/01 05:30:13;;;;;;;1.05;0.32;;;22.20;68.20;;;;;;5048328;23;20037;-52
2022/04/01 05:32:39;;;;;;;1.48;0.68;;;22.20;68.10;;;;;;5046441;23;20068;-50
2022/04/01 05:35:04;;;;;;;1.42;0.60;;;22.20;68.20;;;;;;5051021;23;21119;-45
2022/04/01 05:37:29;;;;;;;1.70;0.60;;;22.20;68.00;;;;;;5048543;23;20055;-49
2022/04/01 05:39:53;;;;;;;1.63;0.82;;;22.20;67.90;;;;;;5046156;23;20013;-52
2022/04/01 05:42:18;;;;;;;;;;;22.20;67.80;;;;;;5053793;23;20124;-50
2022/04/01 05:44:43;;;;;;;3.40;0.90;;;22.20;67.90;;;;;;5049276;23;19908;-47
2022/04/01 05:47:07;;;;;;;0.82;0.50;;;22.20;67.80;;;;;;5068976;23;20017;-51
2022/04/01 05:49:30;;;;;;;0.68;0.60;;;22.20;67.60;;;;;;5069745;23;20061;-49
2022/04/01 05:51:54;;;;;;;1.95;0.60;;;22.20;67.60;;;;;;5065444;23;20013;-48
2022/04/01 05:54:19;;;;;;;2.85;0.77;;;22.20;67.60;;;;;;5073410;23;20017;-47
2022/04/01 05:56:47;;;;;;;0.63;0.50;;;22.20;67.60;;;;;;5068500;23;20013;-47
2022/04/01 05:59:11;;;;;;;0.63;0.40;;;22.20;67.50;;;;;;5078852;23;20023;-46
2022/04/01 06:02:20;;;;;;;2.28;0.60;;;22.20;67.60;;;;;;5068282;23;20120;-53
2022/04/01 06:05:16;;;;;;;2.40;0.80;;;22.20;67.60;;;;;;5048866;23;20086;-45
2022/04/01 06:07:51;;;;;;;0.95;0.60;;;22.20;67.60;;;;;;5076134;23;20017;-45
2022/04/01 06:10:21;;;;;;;;;;;22.20;67.50;;;;;;5068052;23;20024;-47
2022/04/01 06:13:14;;;;;;;2.70;0.88;;;22.20;67.50;;;;;;5077337;23;19912;-43
2022/04/01 06:15:40;;;;;;;2.80;0.80;;;22.20;67.50;;;;;;5075163;23;20019;-47
2022/04/01 06:18:26;;;;;;;1.70;0.60;;;22.20;67.40;;;;;;5080825;23;20951;-52
2022/04/01 06:20:50;;;;;;;1.48;0.88;;;22.20;67.40;;;;;;5076153;23;20095;-48
2022/04/01 06:23:16;;;;;;;0.57;0.55;;;22.20;67.40;;;;;;5071305;23;20819;-49
2022/04/01 06:25:44;;;;;;;1.40;0.57;;;22.20;67.30;;;;;;5080014;23;20016;-48
2022/04/01 06:28:09;;;;;;;1.15;0.60;;;22.20;67.30;;;;;;5071963;23;20100;-45
2022/04/01 06:30:33;;;;;;;1.17;0.60;;;22.20;67.40;;;;;;5080172;23;20013;-49
2022/04/01 06:33:29;;;;;;;1.80;0.77;;;22.20;67.40;;;;;;5079263;23;20136;-48
2022/04/01 06:36:03;;;;;;;1.60;0.88;;;22.20;67.00;;;;;;5070487;23;20027;-46
2022/04/01 06:38:38;;;;;;;2.60;0.85;;;22.20;66.90;;;;;;5081491;23;20446;-53
2022/04/01 06:41:07;;;;;;;2.25;0.70;;;22.20;66.80;;;;;;5040648;23;20041;-49
2022/04/01 06:43:29;;;;;;;0.70;0.55;;;22.20;67.30;;;;;;5083233;23;20016;-48
2022/04/01 06:45:53;;;;;;;0.82;0.60;;;22.10;66.50;;;;;;5066603;23;20025;-50
2022/04/01 06:48:15;;;;;;;;;;;22.20;66.50;;;;;;5063768;23;20017;-54
2022/04/01 06:50:38;;;;;;;0.90;0.43;;;22.20;66.50;;;;;;5055079;23;20432;-51
2022/04/01 06:53:01;;;;;;;3.45;0.95;;;22.20;66.30;;;;;;5066394;23;20455;-52
2022/04/01 06:55:23;;;;;;;2.05;0.60;;;22.10;66.20;;;;;;5071992;23;20043;-51
2022/04/01 06:57:46;;;;;;;1.08;0.65;;;22.10;66.10;;;;;;5070792;23;20009;-49
2022/04/01 07:00:12;;;;;;;3.25;0.60;;;22.10;66.00;;;;;;5065431;23;20017;-50
2022/04/01 07:02:36;;;;;;;2.03;0.90;;;22.10;66.00;;;;;;5072931;23;20016;-50
2022/04/01 07:05:15;;;;;;;2.65;1.38;;;22.10;66.00;;;;;;5065039;23;20563;-44
2022/04/01 07:07:40;;;;;;;4.13;1.25;;;22.10;66.00;;;;;;5070319;23;20167;-44
2022/04/01 07:10:21;;;;;;;2.30;0.80;;;22.10;66.00;;;;;;5068413;23;20025;-43
2022/04/01 07:12:43;;;;;;;3.80;1.20;;;22.10;66.10;;;;;;5046190;23;20020;-46
2022/04/01 07:15:13;;;;;;;3.08;1.40;;;22.10;66.20;;;;;;5042192;23;20157;-50
2022/04/01 07:17:36;;;;;;;4.20;1.27;;;22.10;66.40;;;;;;5046472;23;20847;-51
2022/04/01 07:19:59;;;;;;;2.10;0.80;;;22.10;66.60;;;;;;5046070;23;20013;-49
2022/04/01 07:22:22;;;;;;;3.25;1.42;;;22.10;66.80;;;;;;5047285;23;20566;-50
2022/04/01 07:24:44;;;;;;;2.75;1.40;;;22.10;67.50;;;;;;5044087;23;20196;-51
2022/04/01 07:27:08;;;;;;;1.92;1.10;;;22.10;66.90;;;;;;5042381;23;20014;-48
2022/04/01 07:29:31;;;;;;;3.75;1.00;;;22.10;67.00;;;;;;5044388;23;20021;-48
2022/04/01 07:34:37;;;;;;;1.13;0.70;;;22.10;67.10;;;;;;5040509;23;20040;-47
2022/04/01 07:37:00;;;;;;;1.92;1.15;;;22.10;67.20;;;;;;5042356;23;20065;-54
2022/04/01 07:39:22;;;;;;;3.33;1.20;;;22.10;67.20;;;;;;5042216;23;20536;-49
2022/04/01 07:41:45;;;;;;;2.85;0.93;;;22.20;67.20;;;;;;5039666;23;20029;-52
2022/04/01 07:44:07;;;;;;;5.38;0.80;;;22.20;67.20;;;;;;5040070;23;20922;-46
2022/04/01 07:46:30;;;;;;;0.98;0.77;;;22.10;67.20;;;;;;5045095;23;20028;-51
2022/04/01 07:48:52;;;;;;;2.42;0.73;;;22.20;67.30;;;;;;5040956;23;20017;-46
2022/04/01 07:51:15;;;;;;;2.72;0.73;;;22.10;67.20;;;;;;5042560;23;20719;-43
2022/04/01 07:53:38;;;;;;;2.25;0.85;;;22.20;67.30;;;;;;5045455;23;20527;-47
2022/04/01 07:56:00;;;;;;;2.38;0.60;;;22.10;67.20;;;;;;5034632;23;20018;-50
2022/04/01 07:58:23;;;;;;;1.23;0.75;;;22.10;67.20;;;;;;5035009;23;20932;-47
2022/04/01 08:00:46;;;;;;;3.80;0.70;;;22.10;67.10;;;;;;5040574;23;20025;-48
2022/04/01 08:03:09;;;;;;;2.20;0.65;;;22.10;67.20;;;;;;5040494;23;20021;-47
2022/04/01 08:05:31;;;;;;;1.45;0.50;;;22.10;67.60;;;;;;5039867;23;20014;-52
2022/04/01 08:07:54;;;;;;;1.00;0.43;;;22.10;67.30;;;;;;5049298;23;20084;-50
2022/04/01 08:10:16;;;;;;;0.55;0.45;;;22.10;67.30;;;;;;5042220;23;20033;-50
2022/04/01 08:12:39;;;;;;;0.75;0.50;;;22.10;67.20;;;;;;5041633;23;20419;-51
2022/04/01 08:15:02;;;;;;;2.15;0.52;;;22.10;67.20;;;;;;5048360;23;20021;-49
2022/04/01 08:17:24;;;;;;;0.75;0.57;;;22.10;67.20;;;;;;5045834;23;20017;-44
2022/04/01 08:19:49;;;;;;;1.13;0.63;;;22.10;67.20;;;;;;5041160;23;20436;-47
2022/04/01 08:22:12;;;;;;;1.42;0.50;;;22.10;67.10;;;;;;5049914;23;20017;-45
2022/04/01 08:24:35;;;;;;;2.35;0.60;;;22.10;67.20;;;;;;5045036;23;20104;-48
2022/04/01 08:27:00;;;;;;;1.20;0.60;;;22.10;67.20;;;;;;5042959;23;20475;-48
2022/04/01 08:29:22;;;;;;;1.00;0.45;;;22.10;67.20;;;;;;5043598;23;20807;-45
2022/04/01 08:31:45;;;;;;;0.88;0.50;;;22.10;67.20;;;;;;5043043;23;20013;-47
2022/04/01 08:34:07;;;;;;;3.45;0.70;;;22.10;67.30;;;;;;5043387;23;20209;-45
2022/04/01 08:36:30;;;;;;;1.65;0.50;;;22.10;67.20;;;;;;5050827;23;20060;-50
2022/04/01 08:38:52;;;;;;;4.43;0.60;;;22.10;67.10;;;;;;5041279;23;20044;-43
2022/04/01 08:41:20;;;;;;;1.25;0.52;;;22.10;67.10;;;;;;5040288;23;20101;-45
2022/04/01 08:43:43;;;;;;;4.18;0.63;;;22.10;67.00;;;;;;5045812;23;20028;-42
2022/04/01 08:46:08;;;;;;;0.45;0.43;;;22.10;67.00;;;;;;5042660;23;20028;-42
2022/04/01 08:48:31;;;;;;;0.50;0.50;;;22.10;67.00;;;;;;5046898;23;20786;-44
2022/04/01 08:50:54;;;;;;;0.65;0.40;;;22.10;66.90;;;;;;5046571;23;20064;-44
2022/04/01 08:53:17;;;;;;;1.52;0.45;;;22.10;67.00;;;;;;5042796;23;21114;-48
2022/04/01 08:55:44;;;;;;;1.07;0.53;;;22.10;67.00;;;;;;5052706;23;20175;-52
2022/04/01 08:58:08;;;;;;;1.85;0.70;;;22.00;67.10;;;;;;5051721;23;20250;-44
2022/04/01 09:00:30;;;;;;;0.45;0.40;;;22.00;67.30;;;;;;5035951;23;20883;-47
2022/04/01 09:03:01;;;;;;;1.25;0.50;;;22.00;67.30;;;;;;5051768;23;20652;-48
2022/04/01 09:05:23;;;;;;;0.88;0.30;;;22.00;67.40;;;;;;5040694;23;20021;-46
2022/04/01 09:07:46;;;;;;;1.88;0.57;;;22.00;67.40;;;;;;5054790;23;20882;-54
2022/04/01 09:10:09;;;;;;;0.50;0.40;;;22.00;67.40;;;;;;5042479;23;20036;-48
2022/04/01 09:12:32;;;;;;;1.05;0.45;;;22.00;67.30;;;;;;5048621;23;20546;-45
2022/04/01 09:14:56;;;;;;;0.30;0.30;;;22.00;67.40;;;;;;5053803;23;20017;-46
2022/04/01 09:17:19;;;;;;;0.95;0.47;;;22.00;67.30;;;;;;5046991;23;20009;-50
2022/04/01 09:19:41;;;;;;;1.02;0.40;;;22.00;67.20;;;;;;5048366;23;20024;-50
2022/04/01 09:22:23;;;;;;;0.50;0.40;;;22.00;67.20;;;;;;5043569;23;20009;-46
2022/04/01 09:25:02;;;;;;;1.00;0.40;;;22.00;67.20;;;;;;5050883;23;20024;-46
2022/04/01 09:27:47;;;;;;;1.30;0.40;;;22.00;67.30;;;;;;5046700;23;20404;-49
2022/04/01 09:30:13;;;;;;;0.30;0.30;;;22.00;67.30;;;;;;5051849;23;20036;-47
2022/04/01 09:32:44;;;;;;;0.32;0.30;;;22.00;67.30;;;;;;5057352;23;20076;-46
2022/04/01 09:35:10;;;;;;;2.78;0.60;;;22.00;67.30;;;;;;5048915;23;20028;-50
2022/04/01 09:37:47;;;;;;;0.85;0.63;;;22.00;67.40;;;;;;5048704;23;20024;-47
2022/04/01 09:40:11;;;;;;;0.30;0.30;;;22.00;67.50;;;;;;5049951;23;20052;-49
2022/04/01 09:42:36;;;;;;;5.82;0.70;;;22.00;67.40;;;;;;5044433;23;20024;-47
2022/04/01 09:45:02;;;;;;;1.42;0.60;;;22.00;67.00;;;;;;5047212;23;20927;-44
2022/04/01 09:47:25;;;;;;;2.97;0.55;;;22.00;67.00;;;;;;5054085;23;20199;-49
2022/04/01 09:49:48;;;;;;;1.20;0.50;;;22.00;67.00;;;;;;5046541;23;20061;-48
2022/04/01 09:52:13;;;;;;;2.92;0.60;;;22.00;66.90;;;;;;5046303;23;20041;-50
2022/04/01 09:54:51;;;;;;;1.90;0.50;;;22.00;67.00;;;;;;5050523;23;20021;-48
2022/04/01 09:57:15;;;;;;;1.38;1.02;;;22.00;67.30;;;;;;5048422;23;21038;-44
2022/04/01 09:59:38;;;;;;;2.75;0.63;;;22.00;67.20;;;;;;5047845;23;20044;-46
2022/04/01 10:02:00;;;;;;;1.02;0.45;;;21.90;67.00;;;;;;5048343;23;20176;-46
2022/04/01 10:04:23;;;;;;;1.80;0.50;;;21.90;67.20;;;;;;5049564;23;20017;-46
2022/04/01 10:06:46;;;;;;;1.00;0.47;;;21.90;67.10;;;;;;5052407;23;20072;-49
2022/04/01 10:09:10;;;;;;;;;;;21.90;67.10;;;;;;5053856;23;20100;-49
2022/04/01 10:11:35;;;;;;;0.57;0.50;;;21.90;67.10;;;;;;5055646;23;20063;-43
2022/04/01 10:14:03;;;;;;;1.63;0.50;;;21.90;67.10;;;;;;5047168;23;20084;-48
2022/04/01 10:16:26;;;;;;;1.15;0.47;;;21.90;67.10;;;;;;5047891;23;21022;-49
2022/04/01 10:18:50;;;;;;;1.15;0.63;;;21.90;67.00;;;;;;5052265;23;20028;-46
2022/04/01 10:21:20;;;;;;;;;;;21.90;67.20;;;;;;5045806;23;20018;-47
2022/04/01 10:23:48;;;;;;;1.75;0.50;;;21.90;67.20;;;;;;5052031;23;19908;-49
2022/04/01 10:26:14;;;;;;;1.48;0.40;;;21.90;67.30;;;;;;5048798;23;20105;-51
2022/04/01 10:28:37;;;;;;;3.97;0.75;;;21.80;67.30;;;;;;5051187;23;20017;-43
2022/04/01 10:31:02;;;;;;;0.55;0.50;;;21.80;67.50;;;;;;5052730;23;20040;-47
2022/04/01 10:33:36;;;;;;;3.95;0.85;;;21.80;67.50;;;;;;5049762;23;20017;-46
2022/04/01 10:35:58;;;;;;;5.13;0.63;;;21.80;67.70;;;;;;5042050;23;20903;-46
2022/04/01 10:38:24;;;;;;;1.58;0.57;;;21.80;67.70;;;;;;5048216;23;20020;-47
2022/04/01 10:40:50;;;;;;;2.10;0.85;;;21.80;67.70;;;;;;5054877;23;20414;-46
2022/04/01 10:43:27;;;;;;;2.03;0.80;;;21.80;67.80;;;;;;5045879;23;20093;-43
2022/04/01 10:46:06;;;;;;;2.75;0.70;;;21.80;67.70;;;;;;5040450;23;20107;-46
2022/04/01 10:51:37;;;;;;;0.40;0.40;;;21.70;67.70;;;;;;5057544;23;20025;-43
2022/04/01 10:54:01;;;;;;;1.70;0.68;;;21.70;67.70;;;;;;5055519;23;20028;-49
2022/04/01 10:56:24;;;;;;;0.57;0.32;;;21.70;67.80;;;;;;5052177;23;20443;-45
2022/04/01 10:59:14;;;;;;;4.63;0.57;;;21.70;67.90;;;;;;5053830;23;20092;-44
2022/04/01 11:02:00;;;;;;;1.55;0.52;;;21.70;67.80;;;;;;5057087;23;20009;-50
2022/04/01 11:04:22;;;;;;;3.70;0.47;;;21.70;67.90;;;;;;5052337;23;20456;-48
2022/04/01 11:07:16;;;;;;;1.15;0.43;;;21.70;67.90;;;;;;5054280;23;20048;-43
2022/04/01 11:10:01;;;;;;;1.95;0.40;;;21.70;67.80;;;;;;5057418;23;20021;-45
2022/04/01 11:12:31;;;;;;;0.73;0.30;;;21.70;67.90;;;;;;5058689;23;20460;-46
2022/04/01 11:15:09;;;;;;;0.52;0.40;;;21.70;67.80;;;;;;5051291;23;20088;-46
2022/04/01 11:17:35;;;;;;;2.92;0.63;;;21.70;67.80;;;;;;5064245;23;20040;-47
2022/04/01 11:20:09;;;;;;;1.45;0.43;;;21.60;67.80;;;;;;5062918;23;20014;-43
2022/04/01 11:22:45;;;;;;;1.48;0.52;;;21.70;68.00;;;;;;5058080;23;20022;-43
2022/04/01 11:25:32;;;;;;;1.30;0.40;;;21.70;68.00;;;;;;5039104;23;20956;-43
2022/04/01 11:27:58;;;;;;;1.58;0.70;;;21.60;68.00;;;;;;5050673;23;20021;-44
2022/04/01 11:30:22;;;;;;;0.63;0.50;;;21.60;68.10;;;;;;5046118;23;20029;-47
2022/04/01 11:32:47;;;;;;;0.65;0.30;;;21.60;68.10;;;;;;5046359;23;20025;-48
2022/04/01 11:35:11;;;;;;;0.90;0.40;;;21.60;68.10;;;;;;5022952;23;20021;-49
2022/04/01 11:37:42;;;;;;;0.80;0.45;;;21.60;68.20;;;;;;5044989;23;20792;-47
2022/04/01 11:40:08;;;;;;;1.40;0.40;;;21.60;68.10;;;;;;5054209;23;20023;-44
2022/04/01 11:42:31;;;;;;;2.63;0.40;;;21.60;68.20;;;;;;5047050;23;20057;-50
2022/04/01 11:44:58;;;;;;;0.93;0.50;;;21.60;68.30;;;;;;5053349;23;20013;-44
2022/04/01 11:47:35;;;;;;;0.73;0.60;;;21.60;68.40;;;;;;5041233;23;20109;-47
2022/04/01 11:50:11;;;;;;;0.55;0.52;;;21.60;68.50;;;;;;5052622;23;20152;-44
2022/04/01 11:52:45;;;;;;;1.95;0.55;;;21.60;68.50;;;;;;5047201;23;20573;-44
2022/04/01 11:55:17;;;;;;;2.58;0.55;;;21.60;68.40;;;;;;5047538;23;20068;-43
2022/04/01 11:57:41;;;;;;;1.10;0.30;;;21.60;68.30;;;;;;5042946;23;20025;-48
2022/04/01 12:00:11;;;;;;;1.98;0.40;;;21.60;68.30;;;;;;5046238;23;20998;-45
2022/04/01 12:02:36;;;;;;;0.47;0.32;;;21.60;68.20;;;;;;5054440;23;20413;-45
2022/04/01 12:04:59;;;;;;;2.45;0.68;;;21.60;68.20;;;;;;5051978;23;20546;-44
2022/04/01 12:10:03;;;;;;;7.03;0.60;;;21.50;68.30;;;;;;5051483;23;20617;-46
2022/04/01 12:12:26;;;;;;;1.27;0.70;;;21.50;68.50;;;;;;5057775;23;20031;-46
2022/04/01 12:14:48;;;;;;;2.22;0.80;;;21.50;68.40;;;;;;5025572;23;20021;-52
2022/04/01 12:17:11;;;;;;;8.77;1.05;;;21.50;68.30;;;;;;5048366;23;20093;-48
2022/04/01 12:19:34;;;;;;;1.10;0.60;;;21.40;68.40;;;;;;5051482;23;20014;-48
2022/04/01 12:22:00;;;;;;;2.53;0.70;;;21.40;68.60;;;;;;5053689;23;20783;-44
2022/04/01 12:24:25;;;;;;;1.35;0.60;;;21.40;68.50;;;;;;5051687;23;20092;-45
2022/04/01 12:26:49;;;;;;;2.72;0.70;;;21.40;68.70;;;;;;5053921;23;20660;-50
2022/04/01 12:29:19;;;;;;;3.75;0.90;;;21.40;69.30;;;;;;5049867;23;20117;-44
2022/04/01 12:31:49;;;;;;;4.18;1.00;;;21.40;68.60;;;;;;5043989;23;20080;-44
2022/04/01 12:34:14;;;;;;;1.73;0.70;;;21.40;68.80;;;;;;5048396;23;20102;-43
2022/04/01 12:36:38;;;;;;;1.17;0.55;;;21.40;68.70;;;;;;5045735;23;20047;-49
2022/04/01 12:39:07;;;;;;;2.75;0.75;;;21.30;68.60;;;;;;5051393;23;20018;-43
2022/04/01 12:41:29;;;;;;;3.25;0.70;;;21.30;68.50;;;;;;5052241;23;21126;-43
2022/04/01 12:43:53;;;;;;;1.90;0.63;;;21.30;68.60;;;;;;5053311;23;20112;-54
2022/04/01 12:46:19;;;;;;;2.25;1.00;;;21.30;68.60;;;;;;5048609;23;20056;-46
2022/04/01 12:48:46;;;;;;;2.37;0.70;;;21.30;68.60;;;;;;5052015;23;20017;-46
2022/04/01 12:51:09;;;;;;;5.03;0.90;;;21.30;68.50;;;;;;5048273;23;20132;-49
2022/04/01 12:53:31;;;;;;;1.80;0.82;;;21.30;68.80;;;;;;5046681;23;21107;-49
2022/04/01 12:55:54;;;;;;;1.27;0.60;;;21.30;68.60;;;;;;5055624;23;20115;-46